Beland, Oklahoma
Current Conditions -  °F | °C
As of 3:53 AM on Friday 21 Nov 2014 (Local Time) from KMKO Reporting Station
Light Rain Light Rain  
Wind Chill: 10°   Ceiling: 1900
Heat Index: 10°   Visibility: 10mi
Dew Point:   Wind: 12mph
Humidity: 71%   Direction: 140°SE
Pressure: 30.13"   Gusts: NA
Location:  35.6818°N, 95.3578°W
Report Text: KMKO 210953Z AUTO 14010KT 10SM -RA OVC019 10/05 A3013 RMK AO2 RAB46 SLP201 P0000 T01000050
Loading
Personal Weather Stations






























Interactive Weather Map New forecast layout! Learn more

10-Day Weather Forecast

Advertisements
Track Severe Weather on mobile